sensor_id;sensor_type;location;lat;lon;timestamp;P1;durP1;ratioP1;P2;durP2;ratioP2
55641;SDS011;41509;53.108;6.100;2023-02-15T00:04:04;27.15;;;12.68;;
55641;SDS011;41509;53.108;6.100;2023-02-15T00:06:31;26.08;;;12.25;;
55641;SDS011;41509;53.108;6.100;2023-02-15T00:08:57;23.43;;;13.07;;
55641;SDS011;41509;53.108;6.100;2023-02-15T00:11:23;23.55;;;12.63;;
55641;SDS011;41509;53.108;6.100;2023-02-15T00:14:07;21.45;;;12.10;;
55641;SDS011;41509;53.108;6.100;2023-02-15T00:16:33;29.95;;;13.20;;
55641;SDS011;41509;53.108;6.100;2023-02-15T00:18:59;23.30;;;12.48;;
55641;SDS011;41509;53.108;6.100;2023-02-15T00:21:29;25.00;;;13.70;;
55641;SDS011;41509;53.108;6.100;2023-02-15T00:23:56;27.00;;;13.95;;
55641;SDS011;41509;53.108;6.100;2023-02-15T00:26:24;26.75;;;13.20;;
55641;SDS011;41509;53.108;6.100;2023-02-15T00:28:50;23.40;;;12.30;;
55641;SDS011;41509;53.108;6.100;2023-02-15T00:31:16;22.43;;;12.10;;
55641;SDS011;41509;53.108;6.100;2023-02-15T00:33:41;33.87;;;17.20;;
55641;SDS011;41509;53.108;6.100;2023-02-15T00:36:08;25.97;;;13.27;;
55641;SDS011;41509;53.108;6.100;2023-02-15T00:38:35;22.73;;;13.18;;
55641;SDS011;41509;53.108;6.100;2023-02-15T00:41:02;20.20;;;11.85;;
55641;SDS011;41509;53.108;6.100;2023-02-15T00:43:30;26.90;;;12.98;;
55641;SDS011;41509;53.108;6.100;2023-02-15T00:45:56;26.10;;;14.32;;
55641;SDS011;41509;53.108;6.100;2023-02-15T00:48:22;30.40;;;15.95;;
55641;SDS011;41509;53.108;6.100;2023-02-15T00:50:49;27.75;;;13.65;;
55641;SDS011;41509;53.108;6.100;2023-02-15T00:53:16;25.27;;;13.88;;
55641;SDS011;41509;53.108;6.100;2023-02-15T00:55:42;24.10;;;13.17;;
55641;SDS011;41509;53.108;6.100;2023-02-15T00:58:08;23.60;;;12.63;;
55641;SDS011;41509;53.108;6.100;2023-02-15T01:00:35;22.73;;;13.30;;
55641;SDS011;41509;53.108;6.100;2023-02-15T01:03:01;22.75;;;13.88;;
55641;SDS011;41509;53.108;6.100;2023-02-15T01:05:26;24.67;;;12.93;;
55641;SDS011;41509;53.108;6.100;2023-02-15T01:07:52;25.13;;;12.83;;
55641;SDS011;41509;53.108;6.100;2023-02-15T01:10:18;23.77;;;13.07;;
55641;SDS011;41509;53.108;6.100;2023-02-15T01:12:43;22.30;;;12.17;;
55641;SDS011;41509;53.108;6.100;2023-02-15T01:15:09;23.27;;;13.03;;
55641;SDS011;41509;53.108;6.100;2023-02-15T01:17:35;24.00;;;13.33;;
55641;SDS011;41509;53.108;6.100;2023-02-15T01:20:00;20.43;;;10.93;;
55641;SDS011;41509;53.108;6.100;2023-02-15T01:22:26;23.70;;;12.17;;
55641;SDS011;41509;53.108;6.100;2023-02-15T01:24:52;24.37;;;12.87;;
55641;SDS011;41509;53.108;6.100;2023-02-15T01:27:18;22.90;;;11.73;;
55641;SDS011;41509;53.108;6.100;2023-02-15T01:29:43;22.67;;;12.40;;
55641;SDS011;41509;53.108;6.100;2023-02-15T01:32:09;20.67;;;11.50;;
55641;SDS011;41509;53.108;6.100;2023-02-15T01:34:35;29.75;;;12.98;;
55641;SDS011;41509;53.108;6.100;2023-02-15T01:37:01;18.17;;;10.37;;
55641;SDS011;41509;53.108;6.100;2023-02-15T01:39:26;21.37;;;12.33;;
55641;SDS011;41509;53.108;6.100;2023-02-15T01:41:52;19.93;;;11.20;;
55641;SDS011;41509;53.108;6.100;2023-02-15T01:47:11;19.85;;;11.65;;
55641;SDS011;41509;53.108;6.100;2023-02-15T01:49:39;18.48;;;11.75;;
55641;SDS011;41509;53.108;6.100;2023-02-15T01:52:07;21.50;;;12.50;;
55641;SDS011;41509;53.108;6.100;2023-02-15T01:54:35;19.77;;;11.10;;
55641;SDS011;41509;53.108;6.100;2023-02-15T01:57:05;20.40;;;11.20;;
55641;SDS011;41509;53.108;6.100;2023-02-15T01:59:37;22.13;;;12.82;;
55641;SDS011;41509;53.108;6.100;2023-02-15T02:02:04;21.83;;;12.27;;
55641;SDS011;41509;53.108;6.100;2023-02-15T02:04:52;22.10;;;11.35;;
55641;SDS011;41509;53.108;6.100;2023-02-15T02:10:05;18.50;;;10.60;;
55641;SDS011;41509;53.108;6.100;2023-02-15T02:12:32;21.02;;;11.93;;
55641;SDS011;41509;53.108;6.100;2023-02-15T02:14:59;22.25;;;11.05;;
55641;SDS011;41509;53.108;6.100;2023-02-15T02:23:25;24.05;;;12.85;;
55641;SDS011;41509;53.108;6.100;2023-02-15T02:33:39;23.25;;;12.85;;
55641;SDS011;41509;53.108;6.100;2023-02-15T02:39:14;23.02;;;12.65;;
55641;SDS011;41509;53.108;6.100;2023-02-15T02:44:35;19.45;;;11.68;;
55641;SDS011;41509;53.108;6.100;2023-02-15T02:47:14;20.27;;;11.05;;
55641;SDS011;41509;53.108;6.100;2023-02-15T02:49:52;22.63;;;11.43;;
55641;SDS011;41509;53.108;6.100;2023-02-15T02:52:42;20.25;;;11.45;;
55641;SDS011;41509;53.108;6.100;2023-02-15T03:00:46;20.70;;;11.57;;
55641;SDS011;41509;53.108;6.100;2023-02-15T03:03:14;19.60;;;11.15;;
55641;SDS011;41509;53.108;6.100;2023-02-15T03:06:03;19.55;;;10.95;;
55641;SDS011;41509;53.108;6.100;2023-02-15T03:09:54;17.65;;;10.45;;
55641;SDS011;41509;53.108;6.100;2023-02-15T03:12:10;16.45;;;10.70;;
55641;SDS011;41509;53.108;6.100;2023-02-15T03:14:41;18.67;;;11.30;;
55641;SDS011;41509;53.108;6.100;2023-02-15T03:17:10;20.58;;;12.10;;
55641;SDS011;41509;53.108;6.100;2023-02-15T03:19:38;23.60;;;11.30;;
55641;SDS011;41509;53.108;6.100;2023-02-15T03:22:10;29.55;;;11.18;;
55641;SDS011;41509;53.108;6.100;2023-02-15T03:24:41;22.35;;;11.02;;
55641;SDS011;41509;53.108;6.100;2023-02-15T03:27:18;21.67;;;12.15;;
55641;SDS011;41509;53.108;6.100;2023-02-15T03:29:50;19.13;;;10.98;;
55641;SDS011;41509;53.108;6.100;2023-02-15T03:32:20;34.95;;;11.98;;
55641;SDS011;41509;53.108;6.100;2023-02-15T03:34:46;18.35;;;10.90;;
55641;SDS011;41509;53.108;6.100;2023-02-15T03:42:46;20.77;;;11.07;;
55641;SDS011;41509;53.108;6.100;2023-02-15T03:45:18;23.08;;;12.48;;
55641;SDS011;41509;53.108;6.100;2023-02-15T03:47:50;22.27;;;12.25;;
55641;SDS011;41509;53.108;6.100;2023-02-15T03:50:21;21.75;;;12.25;;
55641;SDS011;41509;53.108;6.100;2023-02-15T03:53:18;23.88;;;12.15;;
55641;SDS011;41509;53.108;6.100;2023-02-15T03:55:47;19.08;;;11.00;;
55641;SDS011;41509;53.108;6.100;2023-02-15T04:00:59;19.13;;;11.15;;
55641;SDS011;41509;53.108;6.100;2023-02-15T04:03:57;21.75;;;12.13;;
55641;SDS011;41509;53.108;6.100;2023-02-15T04:06:27;23.15;;;11.88;;
55641;SDS011;41509;53.108;6.100;2023-02-15T04:08:53;19.43;;;11.37;;
55641;SDS011;41509;53.108;6.100;2023-02-15T04:11:37;20.05;;;11.52;;
55641;SDS011;41509;53.108;6.100;2023-02-15T04:14:02;20.97;;;11.70;;
55641;SDS011;41509;53.108;6.100;2023-02-15T04:16:48;18.70;;;11.27;;
55641;SDS011;41509;53.108;6.100;2023-02-15T04:19:14;18.13;;;10.65;;
55641;SDS011;41509;53.108;6.100;2023-02-15T04:21:58;19.02;;;11.38;;
55641;SDS011;41509;53.108;6.100;2023-02-15T04:24:42;22.83;;;12.27;;
55641;SDS011;41509;53.108;6.100;2023-02-15T04:27:26;20.73;;;11.90;;
55641;SDS011;41509;53.108;6.100;2023-02-15T04:29:52;20.20;;;11.97;;
55641;SDS011;41509;53.108;6.100;2023-02-15T04:32:17;22.90;;;12.73;;
55641;SDS011;41509;53.108;6.100;2023-02-15T04:34:43;25.33;;;12.43;;
55641;SDS011;41509;53.108;6.100;2023-02-15T04:37:09;24.73;;;12.73;;
55641;SDS011;41509;53.108;6.100;2023-02-15T04:39:35;24.50;;;12.75;;
55641;SDS011;41509;53.108;6.100;2023-02-15T04:42:01;22.10;;;12.27;;
55641;SDS011;41509;53.108;6.100;2023-02-15T04:44:26;23.37;;;12.53;;
55641;SDS011;41509;53.108;6.100;2023-02-15T04:46:52;21.43;;;12.43;;
55641;SDS011;41509;53.108;6.100;2023-02-15T04:49:18;23.53;;;12.80;;
55641;SDS011;41509;53.108;6.100;2023-02-15T04:51:43;21.80;;;12.23;;
55641;SDS011;41509;53.108;6.100;2023-02-15T04:54:09;21.60;;;11.60;;
55641;SDS011;41509;53.108;6.100;2023-02-15T04:56:35;21.13;;;12.13;;
55641;SDS011;41509;53.108;6.100;2023-02-15T04:59:02;23.65;;;12.23;;
55641;SDS011;41509;53.108;6.100;2023-02-15T05:01:28;18.47;;;11.10;;
55641;SDS011;41509;53.108;6.100;2023-02-15T05:03:54;22.73;;;12.60;;
55641;SDS011;41509;53.108;6.100;2023-02-15T05:06:20;20.60;;;11.83;;
55641;SDS011;41509;53.108;6.100;2023-02-15T05:08:45;19.70;;;11.53;;
55641;SDS011;41509;53.108;6.100;2023-02-15T05:11:11;22.33;;;13.03;;
55641;SDS011;41509;53.108;6.100;2023-02-15T05:13:37;20.87;;;12.80;;
55641;SDS011;41509;53.108;6.100;2023-02-15T05:16:02;22.17;;;12.30;;
55641;SDS011;41509;53.108;6.100;2023-02-15T05:18:28;25.67;;;12.60;;
55641;SDS011;41509;53.108;6.100;2023-02-15T05:20:54;24.67;;;11.77;;
55641;SDS011;41509;53.108;6.100;2023-02-15T05:23:19;25.20;;;13.17;;
55641;SDS011;41509;53.108;6.100;2023-02-15T05:25:49;27.40;;;12.93;;
55641;SDS011;41509;53.108;6.100;2023-02-15T05:28:34;30.05;;;13.05;;
55641;SDS011;41509;53.108;6.100;2023-02-15T05:31:05;25.50;;;13.93;;
55641;SDS011;41509;53.108;6.100;2023-02-15T05:33:33;26.00;;;13.38;;
55641;SDS011;41509;53.108;6.100;2023-02-15T05:35:59;23.23;;;12.45;;
55641;SDS011;41509;53.108;6.100;2023-02-15T05:38:26;27.45;;;14.60;;
55641;SDS011;41509;53.108;6.100;2023-02-15T05:40:51;29.17;;;13.70;;
55641;SDS011;41509;53.108;6.100;2023-02-15T05:43:17;28.08;;;13.77;;
55641;SDS011;41509;53.108;6.100;2023-02-15T05:45:47;26.60;;;14.20;;
55641;SDS011;41509;53.108;6.100;2023-02-15T05:48:14;30.40;;;14.93;;
55641;SDS011;41509;53.108;6.100;2023-02-15T05:53:06;30.15;;;14.88;;
55641;SDS011;41509;53.108;6.100;2023-02-15T05:55:31;29.75;;;15.05;;
55641;SDS011;41509;53.108;6.100;2023-02-15T05:57:57;28.70;;;14.23;;
55641;SDS011;41509;53.108;6.100;2023-02-15T06:00:23;28.07;;;15.07;;
55641;SDS011;41509;53.108;6.100;2023-02-15T06:02:48;32.57;;;15.97;;
55641;SDS011;41509;53.108;6.100;2023-02-15T06:05:14;30.57;;;16.00;;
55641;SDS011;41509;53.108;6.100;2023-02-15T06:07:42;36.70;;;16.73;;
55641;SDS011;41509;53.108;6.100;2023-02-15T06:10:09;31.73;;;15.55;;
55641;SDS011;41509;53.108;6.100;2023-02-15T06:12:35;39.60;;;18.83;;
55641;SDS011;41509;53.108;6.100;2023-02-15T06:15:01;44.83;;;18.80;;
55641;SDS011;41509;53.108;6.100;2023-02-15T06:17:27;39.13;;;18.65;;
55641;SDS011;41509;53.108;6.100;2023-02-15T06:19:52;36.60;;;19.07;;
55641;SDS011;41509;53.108;6.100;2023-02-15T06:22:18;40.20;;;19.33;;
55641;SDS011;41509;53.108;6.100;2023-02-15T06:24:45;41.92;;;17.35;;
55641;SDS011;41509;53.108;6.100;2023-02-15T06:27:11;35.70;;;18.33;;
55641;SDS011;41509;53.108;6.100;2023-02-15T06:29:36;34.97;;;17.17;;
55641;SDS011;41509;53.108;6.100;2023-02-15T06:32:02;41.20;;;19.07;;
55641;SDS011;41509;53.108;6.100;2023-02-15T06:34:28;38.65;;;18.95;;
55641;SDS011;41509;53.108;6.100;2023-02-15T06:36:53;38.23;;;18.30;;
55641;SDS011;41509;53.108;6.100;2023-02-15T06:39:19;37.80;;;17.50;;
55641;SDS011;41509;53.108;6.100;2023-02-15T06:41:45;42.43;;;18.30;;
55641;SDS011;41509;53.108;6.100;2023-02-15T06:44:10;38.83;;;17.83;;
55641;SDS011;41509;53.108;6.100;2023-02-15T06:46:36;38.30;;;18.80;;
55641;SDS011;41509;53.108;6.100;2023-02-15T06:49:01;36.33;;;17.13;;
55641;SDS011;41509;53.108;6.100;2023-02-15T06:51:27;40.27;;;18.27;;
55641;SDS011;41509;53.108;6.100;2023-02-15T06:53:53;43.53;;;17.57;;
55641;SDS011;41509;53.108;6.100;2023-02-15T06:56:18;39.17;;;18.80;;
55641;SDS011;41509;53.108;6.100;2023-02-15T06:58:44;37.80;;;18.50;;
55641;SDS011;41509;53.108;6.100;2023-02-15T07:01:14;38.30;;;17.55;;
55641;SDS011;41509;53.108;6.100;2023-02-15T07:03:40;40.67;;;19.47;;
55641;SDS011;41509;53.108;6.100;2023-02-15T07:06:06;38.77;;;17.03;;
55641;SDS011;41509;53.108;6.100;2023-02-15T07:08:33;37.85;;;17.67;;
55641;SDS011;41509;53.108;6.100;2023-02-15T07:11:00;44.42;;;18.85;;
55641;SDS011;41509;53.108;6.100;2023-02-15T07:13:49;39.95;;;18.08;;
55641;SDS011;41509;53.108;6.100;2023-02-15T07:16:17;44.65;;;18.83;;
55641;SDS011;41509;53.108;6.100;2023-02-15T07:18:43;36.72;;;17.77;;
55641;SDS011;41509;53.108;6.100;2023-02-15T07:21:09;45.77;;;20.13;;
55641;SDS011;41509;53.108;6.100;2023-02-15T07:23:35;41.83;;;18.97;;
55641;SDS011;41509;53.108;6.100;2023-02-15T07:26:05;43.75;;;19.25;;
55641;SDS011;41509;53.108;6.100;2023-02-15T07:28:32;49.92;;;19.02;;
55641;SDS011;41509;53.108;6.100;2023-02-15T07:38:23;41.58;;;17.48;;
55641;SDS011;41509;53.108;6.100;2023-02-15T07:40:49;44.42;;;18.40;;
55641;SDS011;41509;53.108;6.100;2023-02-15T07:43:15;46.87;;;19.13;;
55641;SDS011;41509;53.108;6.100;2023-02-15T07:45:42;41.92;;;19.40;;
55641;SDS011;41509;53.108;6.100;2023-02-15T07:48:08;42.35;;;17.83;;
55641;SDS011;41509;53.108;6.100;2023-02-15T07:50:34;34.53;;;17.93;;
55641;SDS011;41509;53.108;6.100;2023-02-15T07:53:03;42.55;;;18.90;;
55641;SDS011;41509;53.108;6.100;2023-02-15T07:55:29;52.30;;;19.75;;
55641;SDS011;41509;53.108;6.100;2023-02-15T07:57:55;45.85;;;19.20;;
55641;SDS011;41509;53.108;6.100;2023-02-15T08:00:21;42.17;;;17.93;;
55641;SDS011;41509;53.108;6.100;2023-02-15T08:02:50;43.42;;;18.23;;
55641;SDS011;41509;53.108;6.100;2023-02-15T08:05:36;37.10;;;16.55;;
55641;SDS011;41509;53.108;6.100;2023-02-15T08:08:02;41.03;;;17.50;;
55641;SDS011;41509;53.108;6.100;2023-02-15T08:10:28;37.00;;;17.30;;
55641;SDS011;41509;53.108;6.100;2023-02-15T08:13:12;41.65;;;17.67;;
55641;SDS011;41509;53.108;6.100;2023-02-15T08:15:38;32.13;;;16.20;;
55641;SDS011;41509;53.108;6.100;2023-02-15T08:18:03;36.73;;;16.07;;
55641;SDS011;41509;53.108;6.100;2023-02-15T08:20:29;40.80;;;17.40;;
55641;SDS011;41509;53.108;6.100;2023-02-15T08:22:55;39.33;;;17.67;;
55641;SDS011;41509;53.108;6.100;2023-02-15T08:25:20;42.20;;;18.83;;
55641;SDS011;41509;53.108;6.100;2023-02-15T08:27:46;31.40;;;16.40;;
55641;SDS011;41509;53.108;6.100;2023-02-15T08:30:12;35.60;;;16.83;;
55641;SDS011;41509;53.108;6.100;2023-02-15T08:32:39;35.30;;;17.25;;
55641;SDS011;41509;53.108;6.100;2023-02-15T08:35:05;39.73;;;18.07;;
55641;SDS011;41509;53.108;6.100;2023-02-15T08:37:31;37.30;;;17.55;;
55641;SDS011;41509;53.108;6.100;2023-02-15T08:39:57;36.88;;;18.65;;
55641;SDS011;41509;53.108;6.100;2023-02-15T08:42:23;38.70;;;17.80;;
55641;SDS011;41509;53.108;6.100;2023-02-15T08:44:48;38.80;;;18.43;;
55641;SDS011;41509;53.108;6.100;2023-02-15T08:47:16;33.58;;;16.67;;
55641;SDS011;41509;53.108;6.100;2023-02-15T08:49:42;29.80;;;15.37;;
55641;SDS011;41509;53.108;6.100;2023-02-15T08:52:07;41.10;;;17.07;;
55641;SDS011;41509;53.108;6.100;2023-02-15T08:54:33;38.33;;;17.10;;
55641;SDS011;41509;53.108;6.100;2023-02-15T08:56:58;42.63;;;17.83;;
55641;SDS011;41509;53.108;6.100;2023-02-15T08:59:25;41.50;;;18.35;;
55641;SDS011;41509;53.108;6.100;2023-02-15T09:01:52;31.73;;;16.70;;
55641;SDS011;41509;53.108;6.100;2023-02-15T09:04:18;37.72;;;17.63;;
55641;SDS011;41509;53.108;6.100;2023-02-15T09:06:45;40.30;;;18.80;;
55641;SDS011;41509;53.108;6.100;2023-02-15T09:09:12;34.55;;;17.35;;
55641;SDS011;41509;53.108;6.100;2023-02-15T09:11:42;35.00;;;16.37;;
55641;SDS011;41509;53.108;6.100;2023-02-15T09:14:13;37.67;;;16.98;;
55641;SDS011;41509;53.108;6.100;2023-02-15T09:16:41;32.35;;;17.27;;
55641;SDS011;41509;53.108;6.100;2023-02-15T09:19:11;38.63;;;17.33;;
55641;SDS011;41509;53.108;6.100;2023-02-15T09:21:37;45.17;;;20.37;;
55641;SDS011;41509;53.108;6.100;2023-02-15T09:24:04;42.42;;;19.23;;
55641;SDS011;41509;53.108;6.100;2023-02-15T09:26:32;40.08;;;18.90;;
55641;SDS011;41509;53.108;6.100;2023-02-15T09:29:00;40.13;;;19.70;;
55641;SDS011;41509;53.108;6.100;2023-02-15T09:31:29;43.13;;;19.95;;
55641;SDS011;41509;53.108;6.100;2023-02-15T09:33:56;40.40;;;19.42;;
55641;SDS011;41509;53.108;6.100;2023-02-15T09:36:27;42.88;;;19.42;;
55641;SDS011;41509;53.108;6.100;2023-02-15T09:38:58;43.80;;;20.42;;
55641;SDS011;41509;53.108;6.100;2023-02-15T09:44:38;38.42;;;17.80;;
55641;SDS011;41509;53.108;6.100;2023-02-15T09:47:31;46.03;;;20.02;;
55641;SDS011;41509;53.108;6.100;2023-02-15T09:53:21;47.95;;;20.23;;
55641;SDS011;41509;53.108;6.100;2023-02-15T09:56:15;38.15;;;18.88;;
55641;SDS011;41509;53.108;6.100;2023-02-15T09:59:15;47.72;;;20.20;;
55641;SDS011;41509;53.108;6.100;2023-02-15T10:10:30;43.55;;;19.60;;
55641;SDS011;41509;53.108;6.100;2023-02-15T10:15:53;40.63;;;19.25;;
55641;SDS011;41509;53.108;6.100;2023-02-15T10:26:46;43.08;;;20.27;;
55641;SDS011;41509;53.108;6.100;2023-02-15T10:34:52;41.38;;;20.55;;
55641;SDS011;41509;53.108;6.100;2023-02-15T10:40:40;45.85;;;22.45;;
55641;SDS011;41509;53.108;6.100;2023-02-15T10:54:24;42.30;;;20.08;;
55641;SDS011;41509;53.108;6.100;2023-02-15T11:05:24;47.20;;;20.38;;
55641;SDS011;41509;53.108;6.100;2023-02-15T11:07:57;38.42;;;19.75;;
55641;SDS011;41509;53.108;6.100;2023-02-15T11:10:45;38.92;;;19.02;;
55641;SDS011;41509;53.108;6.100;2023-02-15T11:13:17;36.38;;;18.42;;
55641;SDS011;41509;53.108;6.100;2023-02-15T11:15:45;41.65;;;19.13;;
55641;SDS011;41509;53.108;6.100;2023-02-15T11:18:25;38.03;;;18.08;;
55641;SDS011;41509;53.108;6.100;2023-02-15T11:21:04;37.67;;;18.73;;
55641;SDS011;41509;53.108;6.100;2023-02-15T11:23:40;35.25;;;17.25;;
55641;SDS011;41509;53.108;6.100;2023-02-15T11:26:16;40.30;;;18.27;;
55641;SDS011;41509;53.108;6.100;2023-02-15T11:28:49;41.90;;;18.17;;
55641;SDS011;41509;53.108;6.100;2023-02-15T11:31:21;43.00;;;17.92;;
55641;SDS011;41509;53.108;6.100;2023-02-15T11:33:52;36.08;;;16.90;;
55641;SDS011;41509;53.108;6.100;2023-02-15T11:36:37;42.78;;;19.15;;
55641;SDS011;41509;53.108;6.100;2023-02-15T11:39:13;40.78;;;19.42;;
55641;SDS011;41509;53.108;6.100;2023-02-15T11:41:46;39.33;;;18.77;;
55641;SDS011;41509;53.108;6.100;2023-02-15T11:44:28;38.70;;;19.02;;
55641;SDS011;41509;53.108;6.100;2023-02-15T11:46:59;41.90;;;19.88;;
55641;SDS011;41509;53.108;6.100;2023-02-15T11:49:30;41.13;;;18.33;;
55641;SDS011;41509;53.108;6.100;2023-02-15T11:51:58;39.65;;;20.08;;
55641;SDS011;41509;53.108;6.100;2023-02-15T11:54:29;37.53;;;17.80;;
55641;SDS011;41509;53.108;6.100;2023-02-15T11:56:58;42.42;;;19.23;;
55641;SDS011;41509;53.108;6.100;2023-02-15T11:59:32;41.00;;;18.60;;
55641;SDS011;41509;53.108;6.100;2023-02-15T12:02:01;51.13;;;21.60;;
55641;SDS011;41509;53.108;6.100;2023-02-15T12:04:30;40.22;;;20.45;;
55641;SDS011;41509;53.108;6.100;2023-02-15T12:07:21;46.47;;;20.25;;
55641;SDS011;41509;53.108;6.100;2023-02-15T12:10:03;39.53;;;20.05;;
55641;SDS011;41509;53.108;6.100;2023-02-15T12:12:37;45.78;;;21.42;;
55641;SDS011;41509;53.108;6.100;2023-02-15T12:15:06;46.50;;;20.75;;
55641;SDS011;41509;53.108;6.100;2023-02-15T12:17:50;48.55;;;20.70;;
55641;SDS011;41509;53.108;6.100;2023-02-15T12:22:54;40.43;;;19.90;;
55641;SDS011;41509;53.108;6.100;2023-02-15T12:25:41;42.63;;;20.73;;
55641;SDS011;41509;53.108;6.100;2023-02-15T12:28:30;39.90;;;19.13;;
55641;SDS011;41509;53.108;6.100;2023-02-15T12:30:58;35.83;;;17.33;;
55641;SDS011;41509;53.108;6.100;2023-02-15T12:36:03;39.33;;;19.05;;
55641;SDS011;41509;53.108;6.100;2023-02-15T12:39:03;37.30;;;17.23;;
55641;SDS011;41509;53.108;6.100;2023-02-15T12:41:32;34.30;;;17.00;;
55641;SDS011;41509;53.108;6.100;2023-02-15T12:44:18;42.38;;;18.55;;
55641;SDS011;41509;53.108;6.100;2023-02-15T12:52:46;33.63;;;16.02;;
55641;SDS011;41509;53.108;6.100;2023-02-15T12:57:45;32.78;;;15.68;;
55641;SDS011;41509;53.108;6.100;2023-02-15T13:02:47;33.58;;;16.88;;
55641;SDS011;41509;53.108;6.100;2023-02-15T13:07:55;38.65;;;18.38;;
55641;SDS011;41509;53.108;6.100;2023-02-15T13:11:09;35.30;;;17.05;;
55641;SDS011;41509;53.108;6.100;2023-02-15T13:13:20;37.47;;;17.52;;
55641;SDS011;41509;53.108;6.100;2023-02-15T13:15:53;40.40;;;18.25;;
55641;SDS011;41509;53.108;6.100;2023-02-15T13:20:52;42.47;;;18.42;;
55641;SDS011;41509;53.108;6.100;2023-02-15T13:23:27;37.40;;;17.83;;
55641;SDS011;41509;53.108;6.100;2023-02-15T13:28:22;35.22;;;18.63;;
55641;SDS011;41509;53.108;6.100;2023-02-15T13:30:53;36.08;;;18.67;;
55641;SDS011;41509;53.108;6.100;2023-02-15T13:41:15;38.40;;;18.03;;
55641;SDS011;41509;53.108;6.100;2023-02-15T14:06:03;37.33;;;17.20;;
55641;SDS011;41509;53.108;6.100;2023-02-15T14:17:23;41.47;;;18.88;;
55641;SDS011;41509;53.108;6.100;2023-02-15T14:20:24;37.17;;;17.73;;
55641;SDS011;41509;53.108;6.100;2023-02-15T14:31:16;31.42;;;16.52;;
55641;SDS011;41509;53.108;6.100;2023-02-15T14:33:56;34.83;;;17.20;;
55641;SDS011;41509;53.108;6.100;2023-02-15T14:36:22;33.07;;;16.90;;
55641;SDS011;41509;53.108;6.100;2023-02-15T14:41:53;40.67;;;18.00;;
55641;SDS011;41509;53.108;6.100;2023-02-15T14:44:29;38.08;;;17.13;;
55641;SDS011;41509;53.108;6.100;2023-02-15T14:47:14;38.22;;;17.83;;
55641;SDS011;41509;53.108;6.100;2023-02-15T14:49:47;34.08;;;17.13;;
55641;SDS011;41509;53.108;6.100;2023-02-15T14:52:13;36.57;;;16.57;;
55641;SDS011;41509;53.108;6.100;2023-02-15T15:09:37;36.63;;;16.65;;
55641;SDS011;41509;53.108;6.100;2023-02-15T15:14:46;32.20;;;16.42;;
55641;SDS011;41509;53.108;6.100;2023-02-15T15:17:59;34.10;;;16.77;;
55641;SDS011;41509;53.108;6.100;2023-02-15T15:22:50;37.65;;;16.67;;
55641;SDS011;41509;53.108;6.100;2023-02-15T15:25:43;36.85;;;17.55;;
55641;SDS011;41509;53.108;6.100;2023-02-15T15:30:58;33.45;;;17.27;;
55641;SDS011;41509;53.108;6.100;2023-02-15T15:41:42;36.70;;;17.17;;
55641;SDS011;41509;53.108;6.100;2023-02-15T15:44:40;34.75;;;16.30;;
55641;SDS011;41509;53.108;6.100;2023-02-15T15:49:58;39.63;;;17.35;;
55641;SDS011;41509;53.108;6.100;2023-02-15T15:52:24;35.17;;;16.90;;
55641;SDS011;41509;53.108;6.100;2023-02-15T15:54:53;39.30;;;17.17;;
55641;SDS011;41509;53.108;6.100;2023-02-15T15:59:56;39.13;;;17.40;;
55641;SDS011;41509;53.108;6.100;2023-02-15T16:02:25;38.92;;;17.83;;
55641;SDS011;41509;53.108;6.100;2023-02-15T16:05:05;38.47;;;17.73;;
55641;SDS011;41509;53.108;6.100;2023-02-15T16:07:41;34.78;;;17.20;;
55641;SDS011;41509;53.108;6.100;2023-02-15T16:10:24;37.78;;;17.95;;
55641;SDS011;41509;53.108;6.100;2023-02-15T16:12:51;35.60;;;16.67;;
55641;SDS011;41509;53.108;6.100;2023-02-15T16:15:31;36.65;;;17.95;;
55641;SDS011;41509;53.108;6.100;2023-02-15T16:18:11;39.22;;;17.38;;
55641;SDS011;41509;53.108;6.100;2023-02-15T16:20:40;41.45;;;18.30;;
55641;SDS011;41509;53.108;6.100;2023-02-15T16:25:41;40.00;;;18.93;;
55641;SDS011;41509;53.108;6.100;2023-02-15T16:28:10;32.42;;;17.67;;
55641;SDS011;41509;53.108;6.100;2023-02-15T16:30:38;42.70;;;18.70;;
55641;SDS011;41509;53.108;6.100;2023-02-15T16:35:34;38.10;;;18.25;;
55641;SDS011;41509;53.108;6.100;2023-02-15T16:38:04;37.97;;;17.50;;
55641;SDS011;41509;53.108;6.100;2023-02-15T16:40:35;38.65;;;17.77;;
55641;SDS011;41509;53.108;6.100;2023-02-15T16:43:13;36.58;;;16.98;;
55641;SDS011;41509;53.108;6.100;2023-02-15T16:45:43;39.20;;;18.10;;
55641;SDS011;41509;53.108;6.100;2023-02-15T16:48:12;40.90;;;18.87;;
55641;SDS011;41509;53.108;6.100;2023-02-15T16:50:50;39.28;;;18.17;;
55641;SDS011;41509;53.108;6.100;2023-02-15T16:53:37;39.90;;;18.13;;
55641;SDS011;41509;53.108;6.100;2023-02-15T16:56:04;40.20;;;19.57;;
55641;SDS011;41509;53.108;6.100;2023-02-15T16:58:37;36.58;;;17.90;;
55641;SDS011;41509;53.108;6.100;2023-02-15T17:01:05;44.08;;;20.15;;
55641;SDS011;41509;53.108;6.100;2023-02-15T17:03:34;44.17;;;19.90;;
55641;SDS011;41509;53.108;6.100;2023-02-15T17:06:00;43.42;;;20.88;;
55641;SDS011;41509;53.108;6.100;2023-02-15T17:08:29;36.67;;;19.83;;
55641;SDS011;41509;53.108;6.100;2023-02-15T17:16:43;51.80;;;23.40;;
55641;SDS011;41509;53.108;6.100;2023-02-15T17:19:24;46.33;;;22.67;;
55641;SDS011;41509;53.108;6.100;2023-02-15T17:22:16;48.03;;;21.70;;
55641;SDS011;41509;53.108;6.100;2023-02-15T17:24:44;47.75;;;22.42;;
55641;SDS011;41509;53.108;6.100;2023-02-15T17:27:18;46.75;;;23.85;;
55641;SDS011;41509;53.108;6.100;2023-02-15T17:29:50;41.38;;;22.27;;
55641;SDS011;41509;53.108;6.100;2023-02-15T17:32:31;45.80;;;22.90;;
55641;SDS011;41509;53.108;6.100;2023-02-15T17:35:34;44.90;;;20.77;;
55641;SDS011;41509;53.108;6.100;2023-02-15T17:38:01;44.88;;;21.70;;
55641;SDS011;41509;53.108;6.100;2023-02-15T17:40:34;44.78;;;22.10;;
55641;SDS011;41509;53.108;6.100;2023-02-15T17:43:00;42.83;;;21.13;;
55641;SDS011;41509;53.108;6.100;2023-02-15T17:45:33;47.37;;;21.77;;
55641;SDS011;41509;53.108;6.100;2023-02-15T17:48:02;50.30;;;20.88;;
55641;SDS011;41509;53.108;6.100;2023-02-15T17:50:29;49.85;;;21.23;;
55641;SDS011;41509;53.108;6.100;2023-02-15T17:52:55;41.53;;;22.13;;
55641;SDS011;41509;53.108;6.100;2023-02-15T17:55:23;48.67;;;21.88;;
55641;SDS011;41509;53.108;6.100;2023-02-15T17:58:15;49.92;;;21.67;;
55641;SDS011;41509;53.108;6.100;2023-02-15T18:00:54;49.47;;;23.05;;
55641;SDS011;41509;53.108;6.100;2023-02-15T18:03:50;54.95;;;22.95;;
55641;SDS011;41509;53.108;6.100;2023-02-15T18:06:40;44.90;;;21.73;;
55641;SDS011;41509;53.108;6.100;2023-02-15T18:09:25;44.92;;;21.48;;
55641;SDS011;41509;53.108;6.100;2023-02-15T18:14:52;46.20;;;22.45;;
55641;SDS011;41509;53.108;6.100;2023-02-15T18:17:34;47.13;;;22.80;;
55641;SDS011;41509;53.108;6.100;2023-02-15T18:20:09;43.97;;;21.08;;
55641;SDS011;41509;53.108;6.100;2023-02-15T18:22:43;45.95;;;21.85;;
55641;SDS011;41509;53.108;6.100;2023-02-15T18:25:14;46.10;;;22.23;;
55641;SDS011;41509;53.108;6.100;2023-02-15T18:27:41;51.90;;;23.25;;
55641;SDS011;41509;53.108;6.100;2023-02-15T18:30:11;47.90;;;21.80;;
55641;SDS011;41509;53.108;6.100;2023-02-15T18:32:39;51.80;;;23.30;;
55641;SDS011;41509;53.108;6.100;2023-02-15T18:37:31;56.42;;;24.90;;